• Join FlightAware (Why Join?)
  • Login
  • US Flag 
04:47PM EDT


 

Airport Tracker/Info


-or-


 

Live Flight TrackerFlight Track Log ✈ SWA118 ✈ 21-Apr-2013 ✈ KBWI - KMSY

Flight Track Log - Related Links

Times and Time Zones

All times are in EDT time to prevent confusion due to time zone crossing. See the SWA118 flight status page for this flight to view local times or setup timezone preferences in your user account.

Time Position Orientation Groundspeed Altitude Reporting Facility
EDT Latitude Longitude Course Direction KTS MPH feet Rate Location/Type
09:37AM 39.1667 -76.7333 270° West 187 215 2,100  Level Potomac TRACON
09:38AM 39.1667 -76.8167 270° West 241 277 5,200 3,180 Climbing Potomac TRACON
09:39AM 39.2000 -76.9000 297° West 254 292 8,500 3,360 Climbing Potomac TRACON
09:40AM 39.2167 -76.9667 288° West 268 308 11,700 2,760 Climbing Potomac TRACON
09:41AM 39.2167 -77.0833 270° West 333 383 13,800 2,700 Climbing Potomac TRACON
09:42AM 39.1667 -77.1833 237° Southwest 362 417 17,100 2,820 Climbing Potomac TRACON
09:42AM 39.0833 -77.2500 212° Southwest 372 428 19,200 2,040 Climbing Potomac TRACON
09:44AM 38.9250 -77.3847 214° Southwest 408 470 23,000 1,260 Climbing Washington Center
09:45AM 38.8283 -77.4464 206° Southwest 395 455 23,000  Level Washington Center
09:46AM 38.7356 -77.5078 207° Southwest 390 449 23,100 1,080 Climbing Washington Center
09:47AM 38.6403 -77.5958 216° Southwest 390 449 25,200 2,040 Climbing Washington Center
09:48AM 38.5556 -77.6811 218° Southwest 390 449 27,200 1,860 Climbing Washington Center
09:49AM 38.4786 -77.7797 225° Southwest 395 455 29,000 1,380 Climbing Washington Center
09:50AM 38.4100 -77.8864 231° Southwest 395 455 30,000 480 Climbing Washington Center
09:51AM 38.3350 -77.9900 227° Southwest 400 460 30,000  Level Washington Center
09:52AM 38.2619 -78.0908 227° Southwest 400 460 30,000 840 Level Washington Center
09:53AM 38.1889 -78.1939 228° Southwest 400 460 31,700 1,500 Climbing Washington Center
09:54AM 38.1178 -78.2944 228° Southwest 400 460 33,000 900 Climbing Washington Center
09:55AM 38.0617 -78.3742 228° Southwest 395 455 33,600 1,020 Climbing Washington Center
09:56AM 37.9864 -78.4794 228° Southwest 390 449 35,100 1,500 Climbing Washington Center
09:57AM 37.9333 -78.5931 239° Southwest 378 435 36,600 1,260 Climbing Washington Center
09:58AM 37.8886 -78.7097 244° Southwest 373 429 37,700 660 Climbing Washington Center
09:59AM 37.8439 -78.8289 245° Southwest 373 429 38,000 120 Climbing Washington Center
10:00AM 37.7922 -78.9581 243° Southwest 379 436 38,000  Level Washington Center
10:01AM 37.7450 -79.0794 244° Southwest 379 436 38,000  Level Washington Center
10:02AM 37.7022 -79.1850 243° Southwest 379 436 38,000  Level Washington Center
10:03AM 37.6525 -79.3139 244° Southwest 379 436 38,000  Level Washington Center
10:04AM 37.6094 -79.4219 243° Southwest 379 436 38,000  Level Washington Center
10:05AM 37.5572 -79.5503 243° Southwest 379 436 38,000  Level Washington Center
10:06AM 37.5161 -79.6581 244° Southwest 379 436 38,000  Level Washington Center
10:07AM 37.4636 -79.7886 243° Southwest 379 436 38,000  Level Washington Center
10:08AM 37.4156 -79.9089 243° Southwest 384 442 38,000  Level Washington Center
10:11AM 37.3031 -80.1803 243° Southwest 382 440 38,000  Level Atlanta Center
10:12AM 37.2564 -80.2972 243° Southwest 382 440 38,000  Level Atlanta Center
10:13AM 37.2019 -80.4275 242° Southwest 382 440 38,000  Level Atlanta Center
10:14AM 37.1556 -80.5467 244° Southwest 382 440 38,000  Level Atlanta Center
10:15AM 37.1025 -80.6611 240° Southwest 382 440 38,000  Level Atlanta Center
10:16AM 37.0450 -80.7728 237° Southwest 387 445 38,000  Level Atlanta Center
10:17AM 36.9956 -80.8733 238° Southwest 395 455 38,000  Level Atlanta Center
10:18AM 36.9378 -80.9847 237° Southwest 395 455 38,000  Level Atlanta Center
10:19AM 36.8803 -81.0986 238° Southwest 395 455 38,000  Level Atlanta Center
10:20AM 36.8222 -81.2097 237° Southwest 395 455 38,000  Level Atlanta Center
10:21AM 36.7647 -81.3336 240° Southwest 390 449 38,000  Level Atlanta Center
10:22AM 36.7067 -81.4469 237° Southwest 384 442 38,000  Level Atlanta Center
10:23AM 36.6483 -81.5575 237° Southwest 392 451 38,000  Level Atlanta Center
10:24AM 36.5903 -81.6703 237° Southwest 400 460 38,000  Level Atlanta Center
10:25AM 36.5317 -81.7806 237° Southwest 395 455 38,000  Level Atlanta Center
10:26AM 36.4775 -81.8906 239° Southwest 387 445 38,000  Level Atlanta Center
10:27AM 36.4167 -82.0006 236° Southwest 387 445 38,000  Level Atlanta Center
10:28AM 36.3581 -82.1103 236° Southwest 387 445 38,000  Level Atlanta Center
10:29AM 36.3014 -82.2200 237° Southwest 387 445 38,000  Level Atlanta Center
10:30AM 36.2444 -82.3292 237° Southwest 387 445 38,000  Level Atlanta Center
10:31AM 36.1856 -82.4361 236° Southwest 381 438 38,000  Level Atlanta Center
10:32AM 36.1283 -82.5450 237° Southwest 381 438 38,000  Level Atlanta Center
10:33AM 36.0692 -82.6567 237° Southwest 381 438 38,000  Level Atlanta Center
10:34AM 36.0181 -82.7525 237° Southwest 381 438 38,000  Level Atlanta Center
10:35AM 35.9608 -82.8639 238° Southwest 381 438 38,000  Level Atlanta Center
10:36AM 35.9014 -82.9722 236° Southwest 381 438 38,000  Level Atlanta Center
10:37AM 35.8458 -83.0756 236° Southwest 381 438 38,000  Level Atlanta Center
10:38AM 35.7861 -83.1836 236° Southwest 381 438 38,000  Level Atlanta Center
10:39AM 35.7306 -83.2917 238° Southwest 374 430 38,000  Level Atlanta Center
10:40AM 35.6728 -83.3972 236° Southwest 374 430 38,000  Level Atlanta Center
10:41AM 35.6150 -83.5022 236° Southwest 379 436 38,000  Level Atlanta Center
10:42AM 35.5569 -83.6072 236° Southwest 379 436 38,000  Level Atlanta Center
10:43AM 35.4989 -83.7147 236° Southwest 379 436 38,000  Level Atlanta Center
10:44AM 35.4386 -83.8272 237° Southwest 379 436 38,000  Level Atlanta Center
10:45AM 35.3803 -83.9317 236° Southwest 379 436 38,000  Level Atlanta Center
10:46AM 35.3219 -84.0361 236° Southwest 379 436 38,000  Level Atlanta Center
10:47AM 35.2675 -84.1356 236° Southwest 379 436 38,000  Level Atlanta Center
10:48AM 35.2092 -84.2394 236° Southwest 374 430 38,000  Level Atlanta Center
10:49AM 35.1525 -84.3436 236° Southwest 374 430 38,000  Level Atlanta Center
10:50AM 35.0939 -84.4450 235° Southwest 374 430 38,000  Level Atlanta Center
10:51AM 35.0369 -84.5486 236° Southwest 374 430 38,000  Level Atlanta Center
10:52AM 34.9803 -84.6522 236° Southwest 379 436 38,000  Level Atlanta Center
10:53AM 34.9214 -84.7531 235° Southwest 379 436 38,000  Level Atlanta Center
10:54AM 34.8642 -84.8564 236° Southwest 379 436 38,000  Level Atlanta Center
10:55AM 34.8031 -84.9594 234° Southwest 379 436 38,000  Level Atlanta Center
10:56AM 34.7458 -85.0650 237° Southwest 379 436 38,000  Level Atlanta Center
10:57AM 34.6867 -85.1681 235° Southwest 379 436 38,000  Level Atlanta Center
10:58AM 34.6272 -85.2731 235° Southwest 379 436 38,000  Level Atlanta Center
10:59AM 34.5656 -85.3756 234° Southwest 379 436 38,000  Level Atlanta Center
11:00AM 34.5058 -85.4781 235° Southwest 374 430 38,000  Level Atlanta Center
11:01AM 34.4461 -85.5803 235° Southwest 379 436 38,000  Level Atlanta Center
11:02AM 34.3864 -85.6825 235° Southwest 379 436 38,000  Level Atlanta Center
11:03AM 34.3308 -85.7894 238° Southwest 379 436 38,000  Level Atlanta Center
11:04AM 34.2753 -85.8764 232° Southwest 373 429 38,000  Level Atlanta Center
11:05AM 34.2153 -85.9781 235° Southwest 379 436 38,000  Level Atlanta Center
11:06AM 34.1531 -86.0819 234° Southwest 379 436 38,000  Level Atlanta Center
11:07AM 34.0928 -86.1836 234° Southwest 379 436 38,000  Level Atlanta Center
11:08AM 34.0325 -86.2872 235° Southwest 379 436 38,000  Level Atlanta Center
11:09AM 33.9700 -86.3933 235° Southwest 384 442 38,000  Level Atlanta Center
11:10AM 33.9097 -86.4942 234° Southwest 384 442 38,000  Level Atlanta Center
11:11AM 33.8450 -86.6000 234° Southwest 379 436 38,000  Level Atlanta Center
11:12AM 33.7842 -86.7056 235° Southwest 379 436 38,000  Level Atlanta Center
11:13AM 33.7192 -86.8111 234° Southwest 384 442 38,000  Level Atlanta Center
11:14AM 33.6542 -86.9136 233° Southwest 390 449 38,000  Level Atlanta Center
11:15AM 33.5686 -87.0106 223° Southwest 390 449 38,000  Level Atlanta Center
11:16AM 33.4892 -87.0975 222° Southwest 390 449 38,000  Level Atlanta Center
11:17AM 33.4117 -87.1869 224° Southwest 390 449 38,000  Level Atlanta Center
11:18AM 33.3322 -87.2711 222° Southwest 385 443 38,000  Level Atlanta Center
11:19AM 33.2569 -87.3575 224° Southwest 385 443 38,000  Level Atlanta Center
11:20AM 33.1378 -87.4894 223° Southwest 389 448 38,000  Level Memphis Center
11:21AM 33.0625 -87.5736 223° Southwest 384 442 38,000  Level Memphis Center
11:22AM 32.9889 -87.6553 223° Southwest 379 436 38,000  Level Memphis Center
11:23AM 32.9136 -87.7367 222° Southwest 379 436 38,000  Level Memphis Center
11:24AM 32.8381 -87.8206 223° Southwest 379 436 38,000  Level Memphis Center
11:25AM 32.7606 -87.9117 225° Southwest 365 420 38,000  Level Memphis Center
11:26AM 32.6850 -87.9950 223° Southwest 365 420 38,000  Level Memphis Center
11:27AM 32.6072 -88.0761 221° Southwest 370 426 38,000  Level Memphis Center
11:28AM 32.5333 -88.1594 224° Southwest 370 426 38,000  Level Memphis Center
11:29AM 32.4681 -88.2472 229° Southwest 370 426 38,000  Level Memphis Center
11:30AM 32.4031 -88.3469 232° Southwest 375 432 38,000  Level Memphis Center
11:31AM 32.3419 -88.4444 233° Southwest 375 432 38,000  Level Memphis Center
11:32AM 32.2828 -88.5389 233° Southwest 369 425 38,000  Level Memphis Center
11:33AM 32.2236 -88.6286 232° Southwest 363 418 38,000  Level Memphis Center
11:34AM 32.1642 -88.7231 233° Southwest 363 418 38,000  Level Memphis Center
11:35AM 32.1028 -88.8172 232° Southwest 363 418 38,000  Level Memphis Center
11:36AM 32.0433 -88.9089 233° Southwest 363 418 38,000 -360 Level Memphis Center
11:37AM 31.9839 -89.0053 234° Southwest 363 418 37,300 -840 Descending Memphis Center
11:38AM 31.9203 -89.1042 233° Southwest 368 423 36,400 -900 Descending Memphis Center
11:40AM 31.8122 -89.2689 232° Southwest 378 435 34,700 -1,680 Descending Houston Center
11:41AM 31.7381 -89.3836 233° Southwest 371 427 31,600 -3,180 Descending Houston Center
11:42AM 31.6761 -89.4797 233° Southwest 370 426 28,300 -1,800 Descending Houston Center
11:43AM 31.5903 -89.5614 219° Southwest 400 460 28,000 -660 Descending Houston Center
11:45AM 31.5053 -89.6433 219° Southwest 401 461 27,000 -1,020 Descending Houston Center
11:46AM 31.4197 -89.7239 219° Southwest 396 456 26,000 -1,080 Descending Houston Center
11:47AM 31.3178 -89.8208 219° Southwest 396 456 24,800 -1,080 Descending Houston Center
11:48AM 31.2344 -89.9006 219° Southwest 391 450 23,800 -1,020 Descending Houston Center
11:49AM 31.1506 -89.9778 218° Southwest 387 445 22,700 -1,020 Descending Houston Center
11:50AM 31.0475 -90.0192 199° South 396 456 21,700 -1,440 Descending Houston Center
11:51AM 30.9442 -90.0564 197° South 390 449 19,800 -2,400 Descending Houston Center
11:51AM 30.8900 -90.0764 198° South 377 434 18,400 -2,880 Descending Houston Center
11:52AM 30.8383 -90.0956 198° South 366 421 17,000 -1,980 Descending Houston Center
11:53AM 30.7331 -90.1339 197° South 368 423 15,200 -2,040 Descending Houston Center
11:54AM 30.6483 -90.1639 197° South 372 428 13,100 -2,400 Descending Houston Center
11:55AM 30.5389 -90.2064 198° South 362 417 10,200 -1,620 Descending Houston Center
11:56AM 30.4542 -90.2369 197° South 275 316 9,600 -1,200 Descending Houston Center
11:57AM 30.3839 -90.2639 198° South 258 297 7,800 -1,740 Descending Houston Center
11:58AM 30.3281 -90.2856 199° South 270 311 6,700 -1,740 Descending Houston Center
11:58AM 30.3044 -90.2950 199° South 270 311 5,900 -1,680 Descending Houston Center
11:59AM 30.2558 -90.3125 197° South 276 318 5,000 -1,560 Descending Houston Center
11:59AM 30.2317 -90.3231 201° Southwest 272 313 4,300 -1,440 Descending Houston Center
12:00PM 30.1772 -90.3419 197° South 275 316 3,400 -1,260 Descending Houston Center
12:00PM 30.1600 -90.3506 203° Southwest 273 314 3,000 -1,200 Descending Houston Center
12:01PM 30.1050 -90.3689 196° South 254 292 2,200 -1,080 Descending Houston Center
12:01PM 30.0928 -90.3747 202° Southwest 266 306 1,900 -120 Descending Houston Center
12:02PM 30.0450 -90.3928 198° South 205 236 2,100  Climbing Houston Center
12:02PM 30.0350 -90.3903 168° South 246 283 1,900 -840 Descending Houston Center
12:03PM 30.0147 -90.3581 126° Southeast 146 168 1,300 -900 Descending Houston Center
12:03PM 30.0117 -90.3414 102° East 180 207 1,000 -720 Descending Houston Center
12:04PM 30.0050 -90.3153 106° East 128 147 600 -540 Descending Houston Center
12:04PM 30.0042 -90.3089 99° East 155 178 500 -300 Descending Houston Center
12:06PM 29.9934 -90.2580 165° South  Level Estimated